Time;durP1;ratioP1;P1;durP2;ratioP2;P2;SDS_P1;SDS_P2;PMS_P1;PMS_P2;Temp;Humidity;BMP_temperature;BMP_pressure;BME280_temperature;BME280_humidity;BME280_pressure;Samples;Min_cycle;Max_cycle;Signal;HPM_P1;HPM_P2
2022/08/31 00:04:49;;;;;;;1.70;0.95;;;;;;;23.65;38.14;102331.03;5092694;28;20088;-74
2022/08/31 00:07:14;;;;;;;2.08;0.98;;;;;;;23.45;38.73;102337.34;5093151;28;20012;-74
2022/08/31 00:09:40;;;;;;;1.63;0.73;;;;;;;23.41;38.71;102339.00;5092830;28;20496;-73
2022/08/31 00:12:06;;;;;;;2.85;1.30;;;;;;;23.20;39.34;102339.22;5092654;28;20036;-74
2022/08/31 00:14:31;;;;;;;8.07;1.08;;;;;;;23.33;38.80;102333.25;5092394;28;20104;-74
2022/08/31 00:16:57;;;;;;;3.03;0.90;;;;;;;23.14;39.63;102337.56;5092453;28;20032;-75
2022/08/31 00:19:22;;;;;;;3.53;1.20;;;;;;;23.07;39.78;102337.03;5092964;28;20123;-74
2022/08/31 00:21:48;;;;;;;1.33;1.00;;;;;;;23.15;39.11;102333.75;5092556;28;20024;-73
2022/08/31 00:24:14;;;;;;;4.63;1.00;;;;;;;23.36;39.04;102339.00;5092211;28;20085;-74
2022/08/31 00:26:40;;;;;;;1.42;0.80;;;;;;;23.19;39.30;102341.13;5092487;28;20500;-73
2022/08/31 00:29:06;;;;;;;1.80;0.90;;;;;;;23.39;39.05;102334.88;5092524;28;20144;-74
2022/08/31 00:31:32;;;;;;;1.63;0.95;;;;;;;23.31;38.88;102330.75;5073913;28;20044;-73
2022/08/31 00:33:57;;;;;;;3.65;1.23;;;;;;;23.30;39.56;102334.56;5092876;28;20029;-73
2022/08/31 00:36:25;;;;;;;8.93;1.58;;;;;;;23.38;38.92;102325.00;5092151;28;20120;-74
2022/08/31 00:38:51;;;;;;;1.85;1.02;;;;;;;23.16;39.52;102332.63;5092566;28;20119;-74
2022/08/31 00:41:19;;;;;;;0.75;0.65;;;;;;;23.22;39.31;102328.81;5092587;28;20024;-73
2022/08/31 00:43:49;;;;;;;2.13;0.88;;;;;;;23.19;39.72;102329.34;5092191;28;20043;-75
2022/08/31 00:46:35;;;;;;;10.10;1.23;;;;;;;22.94;40.47;102326.59;5073682;28;20443;-74
2022/08/31 00:49:04;;;;;;;3.33;1.05;;;;;;;22.95;40.24;102328.22;5092382;28;20047;-76
2022/08/31 00:51:32;;;;;;;5.25;1.58;;;;;;;22.79;40.59;102327.38;5092306;28;20388;-73
2022/08/31 00:53:59;;;;;;;1.92;1.10;;;;;;;22.80;40.95;102322.72;5092618;28;20043;-74
2022/08/31 00:56:25;;;;;;;1.90;1.20;;;;;;;23.04;40.07;102330.16;5092208;28;20047;-75
2022/08/31 00:58:51;;;;;;;1.42;0.95;;;;;;;23.13;39.73;102334.03;5073817;28;20043;-74
2022/08/31 01:01:19;;;;;;;8.85;1.30;;;;;;;23.28;39.27;102325.78;5092995;28;20047;-74
2022/08/31 01:03:45;;;;;;;3.60;1.35;;;;;;;23.33;39.64;102334.03;5092022;28;20066;-74
2022/08/31 01:06:12;;;;;;;2.13;1.10;;;;;;;23.10;39.75;102330.97;5092115;28;20032;-74
2022/08/31 01:08:37;;;;;;;1.85;0.82;;;;;;;22.99;39.72;102338.38;5092345;28;20545;-75
2022/08/31 01:11:02;;;;;;;1.77;1.00;;;;;;;23.21;39.76;102330.72;5092403;28;20040;-73
2022/08/31 01:13:29;;;;;;;5.22;0.98;;;;;;;22.91;39.94;102340.81;5088455;28;20032;-74
2022/08/31 01:16:01;;;;;;;2.20;0.95;;;;;;;22.80;40.25;102334.47;5088524;28;20400;-74
2022/08/31 01:18:28;;;;;;;2.97;1.00;;;;;;;22.84;40.60;102340.28;5091754;28;20073;-73
2022/08/31 01:20:59;;;;;;;3.90;1.20;;;;;;;22.87;40.35;102346.03;5091831;28;20032;-74
2022/08/31 01:23:33;;;;;;;1.08;0.77;;;;;;;22.76;40.67;102344.34;5091613;28;20395;-75
2022/08/31 01:26:01;;;;;;;2.47;1.40;;;;;;;22.98;40.01;102346.84;5092359;28;20519;-75
2022/08/31 01:28:26;;;;;;;3.50;1.20;;;;;;;23.05;39.94;102350.19;5092433;28;20031;-75
2022/08/31 01:31:04;;;;;;;1.92;0.90;;;;;;;22.63;40.39;102344.84;5092036;28;20531;-72
2022/08/31 01:33:48;;;;;;;1.42;1.00;;;;;;;22.67;40.16;102343.22;5091767;28;20075;-74
2022/08/31 01:36:14;;;;;;;2.13;1.38;;;;;;;22.87;39.71;102335.06;5092092;28;20084;-75
2022/08/31 01:38:40;;;;;;;2.63;0.70;;;;;;;22.39;40.96;102338.97;5091883;28;20044;-75
2022/08/31 01:41:06;;;;;;;6.13;1.10;;;;;;;22.64;40.46;102347.31;5092151;28;20089;-74
2022/08/31 01:43:33;;;;;;;5.40;1.20;;;;;;;22.69;39.82;102339.13;5092428;28;20044;-73
2022/08/31 01:46:08;;;;;;;1.13;0.95;;;;;;;22.51;40.29;102338.75;5092986;28;20032;-75
2022/08/31 01:48:34;;;;;;;5.72;1.15;;;;;;;22.47;40.27;102349.41;5095831;28;20032;-74
2022/08/31 01:51:02;;;;;;;5.38;1.33;;;;;;;22.21;40.57;102347.66;5071230;28;20037;-74
2022/08/31 01:53:27;;;;;;;1.65;0.90;;;;;;;22.50;40.13;102348.06;5074920;28;20053;-75
2022/08/31 01:55:53;;;;;;;1.00;0.77;;;;;;;22.85;38.96;102355.63;5075021;28;20040;-73
2022/08/31 01:58:18;;;;;;;2.42;1.23;;;;;;;22.66;39.57;102349.81;5075285;28;20044;-74
2022/08/31 02:00:44;;;;;;;2.75;1.27;;;;;;;22.49;39.65;102347.25;5056708;28;20044;-72
2022/08/31 02:03:10;;;;;;;1.77;0.82;;;;;;;22.61;39.14;102347.88;5094943;28;20036;-72
2022/08/31 02:05:36;;;;;;;5.25;0.90;;;;;;;22.33;39.43;102351.00;5094823;28;20129;-73
2022/08/31 02:08:04;;;;;;;2.35;1.20;;;;;;;22.57;38.90;102348.66;5095023;28;20040;-73
2022/08/31 02:10:30;;;;;;;4.85;1.10;;;;;;;22.45;38.88;102353.50;5094951;28;20036;-75
2022/08/31 02:12:55;;;;;;;3.80;0.98;;;;;;;22.35;38.98;102346.06;5095567;28;20364;-73
2022/08/31 02:15:21;;;;;;;2.95;1.30;;;;;;;22.48;38.73;102345.59;5094428;28;20040;-73
2022/08/31 02:18:27;;;;;;;1.20;0.95;;;;;;;22.07;39.33;102349.22;5074312;28;20052;-74
2022/08/31 02:20:53;;;;;;;0.98;0.75;;;;;;;21.96;39.55;102347.50;5087949;28;20030;-74
2022/08/31 02:23:19;;;;;;;3.58;1.00;;;;;;;22.30;38.53;102342.50;5094513;28;20044;-74
2022/08/31 02:25:44;;;;;;;2.75;0.80;;;;;;;22.41;38.28;102335.97;5094084;28;20023;-73
2022/08/31 02:28:12;;;;;;;1.25;0.85;;;;;;;22.40;38.08;102339.81;5094256;28;20054;-75
2022/08/31 02:30:39;;;;;;;1.52;0.65;;;;;;;22.52;37.68;102341.25;5094225;28;20522;-75
2022/08/31 02:33:04;;;;;;;2.05;0.82;;;;;;;22.20;38.38;102334.22;5093901;28;20506;-75
2022/08/31 02:35:29;;;;;;;1.30;0.85;;;;;;;21.84;38.51;102344.97;5094170;28;20044;-73
2022/08/31 02:37:55;;;;;;;5.05;0.98;;;;;;;22.20;38.12;102342.44;5088241;28;20040;-74
2022/08/31 02:40:20;;;;;;;1.30;0.80;;;;;;;22.24;37.88;102338.91;5073958;28;20017;-75
2022/08/31 02:42:46;;;;;;;2.15;0.80;;;;;;;21.84;38.03;102347.72;5073194;28;20029;-73
2022/08/31 02:45:11;;;;;;;2.50;1.02;;;;;;;22.19;36.89;102343.53;5073394;28;20496;-76
2022/08/31 02:47:37;;;;;;;1.08;0.70;;;;;;;22.02;37.21;102345.63;5082901;28;20040;-73
2022/08/31 02:50:07;;;;;;;2.15;0.70;;;;;;;22.31;36.09;102341.41;5094675;28;20039;-76
2022/08/31 02:52:32;;;;;;;1.80;0.65;;;;;;;22.12;36.61;102341.03;5094229;28;20381;-75
2022/08/31 02:54:57;;;;;;;1.80;0.85;;;;;;;21.59;36.75;102335.72;5094901;28;20031;-72
2022/08/31 02:57:23;;;;;;;0.85;0.43;;;;;;;22.10;36.14;102343.22;5094016;28;20039;-73
2022/08/31 02:59:48;;;;;;;1.13;0.55;;;;;;;21.90;36.63;102350.47;5075559;28;20043;-74
2022/08/31 03:02:14;;;;;;;1.55;0.80;;;;;;;22.11;35.91;102339.38;5093930;28;20111;-73
2022/08/31 03:04:40;;;;;;;0.65;0.47;;;;;;;22.13;35.52;102350.88;5094360;28;20161;-74
2022/08/31 03:07:06;;;;;;;1.42;0.50;;;;;;;22.22;35.62;102343.84;5095023;28;20161;-73
2022/08/31 03:09:31;;;;;;;0.60;0.40;;;;;;;21.82;36.06;102341.66;5093681;28;20573;-74
2022/08/31 03:11:58;;;;;;;0.98;0.60;;;;;;;22.12;35.42;102349.25;5093610;28;20070;-73
2022/08/31 03:14:25;;;;;;;0.77;0.52;;;;;;;22.14;35.17;102346.25;5093265;28;20043;-73
2022/08/31 03:16:51;;;;;;;0.60;0.40;;;;;;;22.06;35.25;102344.00;5080895;28;20115;-72
2022/08/31 03:19:16;;;;;;;1.48;0.70;;;;;;;21.74;35.64;102350.34;5073706;28;20070;-73
2022/08/31 03:21:41;;;;;;;3.30;0.65;;;;;;;21.96;35.45;102347.50;5093332;28;20032;-74
2022/08/31 03:24:07;;;;;;;3.05;0.80;;;;;;;21.91;35.55;102344.75;5093072;28;20032;-74
2022/08/31 03:26:33;;;;;;;2.50;0.73;;;;;;;21.54;36.04;102344.69;5074634;28;20032;-73
2022/08/31 03:28:58;;;;;;;1.02;0.52;;;;;;;21.14;36.29;102352.56;5093130;28;20028;-73
2022/08/31 03:31:24;;;;;;;0.90;0.50;;;;;;;21.65;35.93;102348.34;5093963;28;20028;-72
2022/08/31 03:33:49;;;;;;;0.77;0.60;;;;;;;21.60;35.72;102342.84;5092890;28;20178;-74
2022/08/31 03:36:15;;;;;;;2.80;0.63;;;;;;;21.73;35.39;102339.66;5073026;28;20033;-75
2022/08/31 03:38:41;;;;;;;1.10;0.50;;;;;;;21.58;35.98;102345.03;5072968;28;20052;-74
2022/08/31 03:41:06;;;;;;;1.20;0.52;;;;;;;21.65;35.74;102349.19;5073097;28;20036;-75
2022/08/31 03:43:32;;;;;;;3.28;0.60;;;;;;;21.84;35.38;102349.59;5079234;28;20032;-74
2022/08/31 03:45:57;;;;;;;3.25;0.50;;;;;;;21.39;35.75;102355.53;5093890;28;20050;-73
2022/08/31 03:48:23;;;;;;;1.27;0.60;;;;;;;21.51;35.83;102349.88;5074232;28;20035;-74
2022/08/31 03:50:48;;;;;;;1.30;0.73;;;;;;;21.71;35.76;102353.63;5093067;28;20111;-73
2022/08/31 03:53:14;;;;;;;1.45;0.80;;;;;;;22.04;35.23;102351.66;5092731;28;20043;-75
2022/08/31 03:55:41;;;;;;;3.03;0.70;;;;;;;21.38;36.46;102358.53;5072708;28;20047;-76
2022/08/31 03:58:07;;;;;;;0.60;0.50;;;;;;;21.30;36.47;102357.09;5080104;28;20047;-75
2022/08/31 04:00:33;;;;;;;0.65;0.50;;;;;;;21.28;36.13;102359.25;5091946;28;20044;-77
2022/08/31 04:03:00;;;;;;;1.27;0.77;;;;;;;21.71;35.66;102361.81;5090570;28;20032;-75
2022/08/31 04:05:27;;;;;;;2.47;0.60;;;;;;;21.68;35.96;102367.81;5079566;28;20039;-73
2022/08/31 04:07:52;;;;;;;1.95;0.70;;;;;;;21.12;37.15;102356.63;5073969;28;20043;-73
2022/08/31 04:10:18;;;;;;;1.02;0.40;;;;;;;21.54;36.46;102363.84;5092440;28;20020;-74
2022/08/31 04:12:43;;;;;;;1.10;0.60;;;;;;;21.39;37.06;102368.38;5092499;28;20085;-74
2022/08/31 04:15:09;;;;;;;0.70;0.40;;;;;;;21.40;36.74;102364.56;5092821;28;20047;-74
2022/08/31 04:17:35;;;;;;;0.82;0.50;;;;;;;21.44;36.35;102366.53;5092559;28;20056;-73
2022/08/31 04:20:02;;;;;;;1.10;0.65;;;;;;;21.20;37.26;102370.66;5092927;28;20039;-72
2022/08/31 04:22:27;;;;;;;3.17;0.75;;;;;;;20.73;38.06;102370.41;5093183;28;20066;-74
2022/08/31 04:24:53;;;;;;;1.05;0.63;;;;;;;20.72;38.51;102363.28;5093024;28;20064;-74
2022/08/31 04:27:18;;;;;;;4.15;0.60;;;;;;;21.23;37.55;102361.13;5092693;28;20123;-74
2022/08/31 04:29:43;;;;;;;5.93;0.50;;;;;;;21.21;37.54;102358.63;5092702;28;20384;-74
2022/08/31 04:32:09;;;;;;;1.38;0.60;;;;;;;20.97;38.26;102369.03;5092485;28;20036;-75
2022/08/31 04:34:34;;;;;;;2.70;0.90;;;;;;;20.80;38.64;102362.00;5092308;28;20503;-74
2022/08/31 04:36:59;;;;;;;1.48;0.43;;;;;;;21.05;38.30;102361.50;5092784;28;20043;-73
2022/08/31 04:39:25;;;;;;;1.00;0.60;;;;;;;21.18;37.98;102372.84;5091961;28;20490;-75
2022/08/31 04:41:50;;;;;;;1.02;0.50;;;;;;;21.05;38.35;102366.97;5092385;28;20035;-74
2022/08/31 04:44:16;;;;;;;0.82;0.60;;;;;;;21.13;38.01;102372.78;5089894;28;20070;-72
2022/08/31 04:46:41;;;;;;;0.75;0.55;;;;;;;21.28;37.54;102374.84;5085839;28;20032;-72
2022/08/31 04:49:47;;;;;;;1.05;0.60;;;;;;;21.05;38.31;102375.97;5086163;28;20380;-73
2022/08/31 04:52:13;;;;;;;5.63;0.57;;;;;;;20.68;39.59;102381.25;5080429;28;20044;-72
2022/08/31 04:54:38;;;;;;;1.17;0.57;;;;;;;20.82;39.33;102376.22;5076696;28;20086;-73
2022/08/31 04:57:04;;;;;;;0.85;0.50;;;;;;;21.05;38.70;102378.69;5080568;28;20024;-74
2022/08/31 04:59:29;;;;;;;0.60;0.50;;;;;;;21.16;39.02;102380.47;5080304;28;20496;-72
2022/08/31 05:01:55;;;;;;;4.28;0.82;;;;;;;20.53;39.72;102380.25;5086007;28;20060;-73
2022/08/31 05:04:23;;;;;;;3.90;0.88;;;;;;;20.86;39.44;102378.19;5092562;28;20032;-72
2022/08/31 05:06:49;;;;;;;4.40;0.70;;;;;;;20.60;39.94;102378.97;5092363;28;20522;-72
2022/08/31 05:09:18;;;;;;;2.08;0.63;;;;;;;20.65;40.28;102386.41;5079992;28;20025;-71
2022/08/31 05:11:44;;;;;;;2.05;0.98;;;;;;;20.67;40.07;102387.81;5081036;28;20372;-74
2022/08/31 05:14:10;;;;;;;2.83;0.82;;;;;;;20.87;39.76;102390.78;5084316;28;20036;-76
2022/08/31 05:16:39;;;;;;;5.45;0.98;;;;;;;20.79;40.09;102380.31;5092007;28;20035;-74
2022/08/31 05:19:05;;;;;;;0.80;0.60;;;;;;;20.75;40.08;102387.38;5092344;28;20101;-74
2022/08/31 05:21:34;;;;;;;1.40;0.90;;;;;;;20.85;40.06;102389.41;5094523;28;20040;-73
2022/08/31 05:24:15;;;;;;;2.00;0.63;;;;;;;20.62;40.63;102393.19;5095948;28;20049;-73
2022/08/31 05:26:44;;;;;;;1.30;0.60;;;;;;;20.56;41.04;102396.16;5069707;28;20036;-72
2022/08/31 05:29:12;;;;;;;0.93;0.70;;;;;;;20.98;40.01;102389.00;5087790;28;20124;-73
2022/08/31 05:31:39;;;;;;;2.30;1.52;;;;;;;20.34;41.41;102390.66;5084930;28;20047;-74
2022/08/31 05:34:05;;;;;;;0.52;0.50;;;;;;;20.92;40.65;102390.00;5084516;28;20024;-72
2022/08/31 05:36:31;;;;;;;1.90;0.60;;;;;;;20.09;42.15;102393.81;5090374;28;20094;-72
2022/08/31 05:38:59;;;;;;;2.03;1.05;;;;;;;20.47;41.75;102395.75;5086548;28;20562;-71
2022/08/31 05:41:25;;;;;;;2.47;0.70;;;;;;;20.65;41.31;102397.34;5085612;28;20499;-70
2022/08/31 05:43:51;;;;;;;4.20;0.80;;;;;;;20.86;41.07;102393.75;5086937;28;20028;-70
2022/08/31 05:46:17;;;;;;;0.85;0.82;;;;;;;20.56;41.87;102396.16;5084688;28;20066;-70
2022/08/31 05:48:43;;;;;;;8.95;1.35;;;;;;;20.61;41.80;102399.75;5088270;28;20048;-71
2022/08/31 05:51:11;;;;;;;1.48;0.90;;;;;;;20.63;42.00;102399.50;5088154;28;20040;-72
2022/08/31 05:53:38;;;;;;;1.25;0.90;;;;;;;20.74;41.84;102393.06;5084478;28;20058;-70
2022/08/31 05:56:09;;;;;;;0.73;0.60;;;;;;;20.46;42.45;102393.28;5088357;28;20032;-72
2022/08/31 05:58:36;;;;;;;6.82;1.00;;;;;;;20.48;42.42;102400.13;5095079;28;20032;-71
2022/08/31 06:01:02;;;;;;;1.65;0.80;;;;;;;20.38;43.20;102397.28;5076931;28;20381;-74
2022/08/31 06:03:28;;;;;;;2.72;0.73;;;;;;;20.39;43.26;102398.06;5065185;28;20020;-73
2022/08/31 06:06:12;;;;;;;2.95;1.33;;;;;;;20.57;42.87;102397.78;5087913;28;20039;-73
2022/08/31 06:08:39;;;;;;;2.38;1.08;;;;;;;20.72;42.81;102401.53;5087077;28;20021;-77
2022/08/31 06:11:05;;;;;;;1.52;0.80;;;;;;;20.48;43.40;102402.03;5083463;28;20489;-71
2022/08/31 06:13:31;;;;;;;2.95;0.90;;;;;;;20.68;42.87;102400.38;5082995;28;20036;-74
2022/08/31 06:16:00;;;;;;;4.55;0.80;;;;;;;20.37;43.78;102402.97;5087799;28;20024;-72
2022/08/31 06:18:25;;;;;;;5.55;0.95;;;;;;;19.91;44.93;102402.25;5082663;28;20044;-75
2022/08/31 06:21:08;;;;;;;1.52;0.90;;;;;;;20.34;44.09;102406.22;5081476;28;20400;-72
2022/08/31 06:23:38;;;;;;;2.75;0.95;;;;;;;20.66;43.50;102408.00;5085435;28;20044;-74
2022/08/31 06:26:11;;;;;;;3.80;1.20;;;;;;;20.86;43.06;102408.25;5094587;28;20040;-74
2022/08/31 06:28:40;;;;;;;2.50;1.00;;;;;;;20.87;43.04;102407.16;5078718;28;20464;-76
2022/08/31 06:31:10;;;;;;;4.38;1.25;;;;;;;20.75;43.27;102411.13;5081102;28;20452;-69
2022/08/31 06:33:36;;;;;;;10.30;1.40;;;;;;;20.70;43.74;102417.34;5080519;28;20040;-73
2022/08/31 06:36:02;;;;;;;10.85;1.10;;;;;;;20.62;43.64;102408.75;5074393;28;20055;-73
2022/08/31 06:38:28;;;;;;;2.58;1.08;;;;;;;20.61;44.19;102418.06;5074327;28;20431;-73
2022/08/31 06:40:53;;;;;;;6.57;1.05;;;;;;;21.13;42.72;102416.50;5074176;28;20477;-71
2022/08/31 06:43:19;;;;;;;1.88;1.38;;;;;;;21.22;42.83;102431.41;5085604;28;20055;-73
2022/08/31 06:45:44;;;;;;;5.80;1.55;;;;;;;21.03;43.12;102426.53;5094319;28;20505;-73
2022/08/31 06:48:10;;;;;;;2.50;1.20;;;;;;;20.84;43.80;102424.09;5094227;28;20028;-74
2022/08/31 06:50:58;;;;;;;2.45;1.25;;;;;;;21.52;41.68;102428.16;5094014;28;20097;-72
2022/08/31 06:53:23;;;;;;;2.90;1.15;;;;;;;21.62;42.16;102425.50;5094337;28;20054;-72
2022/08/31 06:55:48;;;;;;;3.15;1.40;;;;;;;21.75;41.58;102423.16;5094151;28;20044;-74
2022/08/31 06:58:14;;;;;;;8.55;1.33;;;;;;;21.93;41.39;102427.44;5094608;28;20389;-72
2022/08/31 07:00:39;;;;;;;1.80;1.13;;;;;;;21.50;42.16;102422.91;5094170;28;20030;-71
2022/08/31 07:03:21;;;;;;;7.72;1.17;;;;;;;21.67;42.07;102425.53;5093855;28;20090;-73
2022/08/31 07:05:49;;;;;;;4.63;1.73;;;;;;;21.94;41.51;102434.53;5093974;28;20042;-73
2022/08/31 07:08:15;;;;;;;4.53;1.13;;;;;;;22.19;40.87;102433.91;5093776;28;20093;-74
2022/08/31 07:10:41;;;;;;;4.90;1.33;;;;;;;22.23;41.17;102437.78;5093830;28;20027;-72
2022/08/31 07:13:06;;;;;;;2.35;1.48;;;;;;;22.23;41.11;102446.00;5094191;28;20321;-75
2022/08/31 07:15:31;;;;;;;4.38;1.13;;;;;;;21.88;42.31;102448.47;5092294;28;20085;-73
2022/08/31 07:17:57;;;;;;;5.60;1.48;;;;;;;21.90;41.57;102440.78;5073429;28;20362;-74
2022/08/31 07:21:02;;;;;;;13.80;1.98;;;;;;;22.39;41.43;102447.72;5073460;28;20059;-72
2022/08/31 07:23:28;;;;;;;2.15;1.45;;;;;;;22.54;41.03;102448.63;5073485;28;20028;-73
2022/08/31 07:25:53;;;;;;;2.05;1.10;;;;;;;22.92;39.94;102452.16;5073614;28;20051;-73
2022/08/31 07:28:18;;;;;;;3.25;1.25;;;;;;;22.67;40.71;102441.88;5078421;28;20047;-72
2022/08/31 07:30:44;;;;;;;4.15;1.42;;;;;;;22.72;41.08;102436.44;5093547;28;20043;-72
2022/08/31 07:33:09;;;;;;;2.10;1.35;;;;;;;23.16;39.65;102442.34;5093613;28;20044;-73
2022/08/31 07:35:35;;;;;;;2.08;1.20;;;;;;;23.03;40.00;102454.66;5092883;28;20047;-75
2022/08/31 07:43:30;;;;;;;2.90;1.17;;;;;;;23.53;39.50;102448.50;5085347;28;20043;-74
2022/08/31 07:45:56;;;;;;;2.67;1.15;;;;;;;23.12;39.36;102443.97;5087533;28;20368;-74
2022/08/31 07:48:21;;;;;;;2.45;1.38;;;;;;;23.17;39.85;102447.59;5081572;28;20090;-74
2022/08/31 07:50:46;;;;;;;5.70;1.85;;;;;;;23.22;40.11;102453.06;5083390;28;20033;-72
2022/08/31 07:53:13;;;;;;;2.35;1.40;;;;;;;23.43;38.62;102451.22;5065330;28;20040;-71
2022/08/31 07:55:40;;;;;;;1.90;1.20;;;;;;;23.29;38.89;102453.63;5083059;28;20036;-73
2022/08/31 07:58:14;;;;;;;2.10;0.98;;;;;;;23.55;38.16;102451.78;5081969;28;20087;-72
2022/08/31 08:00:42;;;;;;;2.47;0.80;;;;;;;24.05;37.39;102446.34;5080451;28;20086;-73
2022/08/31 08:03:12;;;;;;;2.83;1.17;;;;;;;24.17;37.21;102452.38;5081943;28;20036;-73
2022/08/31 08:05:40;;;;;;;1.45;0.70;;;;;;;23.85;37.58;102461.97;5082576;28;20086;-72
2022/08/31 08:08:07;;;;;;;2.92;1.90;;;;;;;24.12;37.21;102462.53;5080389;28;20076;-72
2022/08/31 08:10:33;;;;;;;2.33;1.00;;;;;;;24.04;37.28;102460.34;5083316;28;20144;-72
2022/08/31 08:13:02;;;;;;;2.88;1.00;;;;;;;24.29;36.35;102458.38;5062712;28;20112;-72
2022/08/31 08:15:29;;;;;;;8.98;1.35;;;;;;;24.54;35.64;102460.28;5072605;28;20032;-72
2022/08/31 08:17:55;;;;;;;2.20;0.80;;;;;;;24.27;34.77;102459.78;5092188;28;20055;-73
2022/08/31 08:20:20;;;;;;;2.60;0.75;;;;;;;24.21;34.68;102461.72;5092620;28;20048;-72
2022/08/31 08:22:46;;;;;;;2.38;0.85;;;;;;;24.51;34.53;102463.56;5092462;28;20024;-74
2022/08/31 08:25:12;;;;;;;3.70;0.90;;;;;;;24.75;33.81;102466.53;5083611;28;20020;-72
2022/08/31 08:27:38;;;;;;;5.05;0.80;;;;;;;24.69;33.80;102468.47;5072238;28;20534;-72
2022/08/31 08:30:05;;;;;;;1.35;0.70;;;;;;;24.56;33.71;102458.06;5072046;28;20040;-71
2022/08/31 08:32:31;;;;;;;2.03;0.82;;;;;;;24.79;33.86;102465.72;5071904;28;20052;-72
2022/08/31 08:34:57;;;;;;;3.05;0.80;;;;;;;24.73;34.75;102464.09;5072295;28;20029;-71
2022/08/31 08:37:22;;;;;;;2.63;0.93;;;;;;;24.82;34.05;102469.84;5073118;28;20032;-73
2022/08/31 08:39:48;;;;;;;1.70;0.93;;;;;;;25.04;34.01;102467.56;5093796;28;20487;-73
2022/08/31 08:42:14;;;;;;;9.95;0.95;;;;;;;25.40;34.01;102463.50;5113230;28;20123;-71
2022/08/31 08:44:42;;;;;;;1.75;1.00;;;;;;;25.47;33.70;102461.28;5112607;28;20036;-73
2022/08/31 08:47:14;;;;;;;3.95;0.80;;;;;;;25.23;34.31;102469.38;5112372;28;20024;-72
2022/08/31 08:49:44;;;;;;;2.78;1.20;;;;;;;25.92;33.03;102476.63;5091864;28;20082;-72
2022/08/31 08:52:15;;;;;;;3.03;0.70;;;;;;;24.76;34.69;102471.78;5084375;28;20029;-75
2022/08/31 08:54:45;;;;;;;1.45;0.68;;;;;;;25.39;34.24;102472.03;5080936;28;20039;-71
2022/08/31 08:57:34;;;;;;;6.05;1.35;;;;;;;25.53;33.57;102473.06;5096026;28;20052;-74
2022/08/31 09:00:09;;;;;;;2.38;1.08;;;;;;;25.82;33.35;102471.22;5096184;28;20040;-71
2022/08/31 09:03:00;;;;;;;4.43;0.80;;;;;;;25.67;33.99;102469.38;5096220;28;20025;-73
2022/08/31 09:05:58;;;;;;;2.85;0.75;;;;;;;26.29;33.02;102470.53;5096154;28;20496;-72
2022/08/31 09:08:58;;;;;;;1.83;0.60;;;;;;;25.48;34.34;102464.84;5095942;28;20028;-74
2022/08/31 09:11:34;;;;;;;7.40;1.17;;;;;;;25.47;34.33;102455.78;5095937;28;20039;-73
2022/08/31 09:14:24;;;;;;;2.55;0.82;;;;;;;25.81;33.70;102459.34;5096149;28;20044;-74
2022/08/31 09:17:04;;;;;;;3.70;1.40;;;;;;;25.56;34.20;102455.97;5092302;28;20036;-74
2022/08/31 09:19:57;;;;;;;1.63;0.80;;;;;;;25.83;33.27;102459.88;5095701;28;20052;-73
2022/08/31 09:22:15;;;;;;;4.15;0.90;;;;;;;25.70;33.81;102462.47;5064572;28;20043;-73
2022/08/31 09:24:40;;;;;;;2.80;1.10;;;;;;;25.58;33.78;102460.09;5075513;28;20032;-73
2022/08/31 09:27:17;;;;;;;3.22;1.02;;;;;;;26.29;32.69;102460.34;5075016;28;20063;-73
2022/08/31 09:29:53;;;;;;;1.75;0.82;;;;;;;26.32;33.00;102459.75;5080968;28;20070;-72
2022/08/31 09:32:25;;;;;;;2.33;0.80;;;;;;;26.52;32.55;102450.44;5085366;28;20552;-75
2022/08/31 09:35:02;;;;;;;1.42;0.95;;;;;;;26.13;32.46;102453.31;5086230;28;20488;-72
2022/08/31 09:37:46;;;;;;;4.38;0.68;;;;;;;26.39;31.85;102453.91;5086593;28;20480;-74
2022/08/31 09:40:17;;;;;;;6.10;1.00;;;;;;;27.04;30.91;102453.13;5086418;28;20056;-73
2022/08/31 09:42:45;;;;;;;3.50;0.70;;;;;;;27.28;29.50;102456.66;5083687;28;20056;-72
2022/08/31 09:45:23;;;;;;;3.65;0.73;;;;;;;27.55;28.85;102456.00;5084673;28;20036;-74
2022/08/31 09:47:57;;;;;;;1.63;0.75;;;;;;;27.47;29.18;102448.41;5084339;28;20081;-73
2022/08/31 09:50:37;;;;;;;2.03;0.88;;;;;;;27.71;28.49;102449.13;5082519;28;20484;-74
2022/08/31 09:56:21;;;;;;;1.55;0.73;;;;;;;27.37;28.83;102454.91;5082757;28;20439;-74
2022/08/31 09:58:50;;;;;;;5.60;1.05;;;;;;;27.25;29.08;102454.50;5084625;28;20435;-72
2022/08/31 10:01:45;;;;;;;1.33;0.77;;;;;;;27.76;27.82;102452.63;5085702;28;20074;-71
2022/08/31 10:04:14;;;;;;;1.67;0.70;;;;;;;28.24;27.41;102452.38;4983611;28;20533;-71
2022/08/31 10:06:54;;;;;;;1.70;0.68;;;;;;;28.30;27.34;102446.47;4982185;28;20042;-73
2022/08/31 10:09:27;;;;;;;0.80;0.47;;;;;;;28.36;27.04;102447.97;4983141;28;20039;-74
2022/08/31 10:11:56;;;;;;;5.97;0.50;;;;;;;28.06;26.93;102456.03;4964547;28;20554;-72
2022/08/31 10:14:30;;;;;;;3.33;0.90;;;;;;;28.37;26.51;102441.34;4981901;28;20053;-72
2022/08/31 10:17:08;;;;;;;2.88;0.65;;;;;;;28.32;26.11;102443.38;4987892;28;20150;-74
2022/08/31 10:20:06;;;;;;;2.42;0.60;;;;;;;28.50;25.84;102439.72;4980388;28;20049;-71
2022/08/31 10:22:47;;;;;;;2.40;0.65;;;;;;;28.82;25.64;102433.25;4982243;28;20042;-74
2022/08/31 10:25:37;;;;;;;3.35;0.52;;;;;;;28.78;25.49;102437.75;4979940;28;20487;-74
2022/08/31 10:28:14;;;;;;;1.45;0.73;;;;;;;28.47;24.81;102432.00;4988883;28;20060;-75
2022/08/31 10:30:42;;;;;;;5.80;1.02;;;;;;;27.75;25.06;102434.38;4991753;28;20043;-77
2022/08/31 10:33:16;;;;;;;1.02;0.73;;;;;;;27.18;25.18;102431.13;5008844;28;20069;-75
2022/08/31 10:35:53;;;;;;;1.75;0.63;;;;;;;27.24;25.81;102425.25;5011811;28;20585;-76
2022/08/31 10:38:33;;;;;;;0.60;0.40;;;;;;;27.88;25.26;102437.50;5011672;28;20441;-77
2022/08/31 10:41:11;;;;;;;3.17;0.55;;;;;;;28.33;24.90;102417.34;5066325;28;20123;-78
2022/08/31 10:43:44;;;;;;;4.00;0.73;;;;;;;28.28;24.25;102423.81;5083842;28;20070;-74
2022/08/31 10:46:11;;;;;;;1.90;0.70;;;;;;;28.59;24.24;102419.34;5084653;28;20488;-76
2022/08/31 10:48:50;;;;;;;1.95;0.95;;;;;;;28.52;25.31;102418.09;5082033;28;20056;-73
2022/08/31 10:51:25;;;;;;;1.38;0.85;;;;;;;29.07;23.96;102416.91;5081555;28;20040;-73
2022/08/31 10:54:03;;;;;;;7.57;0.70;;;;;;;29.09;23.03;102417.41;5081268;28;20060;-74
2022/08/31 10:56:48;;;;;;;1.33;0.60;;;;;;;29.41;22.52;102420.00;5081806;28;20036;-74
2022/08/31 10:59:28;;;;;;;3.88;1.10;;;;;;;29.82;22.22;102422.63;5083375;28;20040;-76
2022/08/31 11:02:31;;;;;;;0.73;0.50;;;;;;;29.59;22.79;102428.44;5083449;28;20127;-74
2022/08/31 11:05:05;;;;;;;4.78;0.63;;;;;;;29.19;21.99;102413.63;5081380;28;20040;-74
2022/08/31 11:07:36;;;;;;;1.27;0.60;;;;;;;29.13;22.69;102412.91;5081294;28;20043;-76
2022/08/31 11:10:32;;;;;;;3.25;0.50;;;;;;;28.56;23.17;102413.59;5083138;28;20111;-74
2022/08/31 11:13:04;;;;;;;3.38;0.70;;;;;;;29.32;23.00;102413.59;5081777;28;20456;-75
2022/08/31 11:15:48;;;;;;;5.43;0.52;;;;;;;28.82;23.97;102408.34;5081913;28;20082;-74
2022/08/31 11:18:38;;;;;;;2.40;0.70;;;;;;;29.64;23.20;102411.72;5082949;28;20048;-74
2022/08/31 11:21:41;;;;;;;2.25;0.60;;;;;;;29.61;21.65;102401.25;5082280;28;20124;-73
2022/08/31 11:24:33;;;;;;;3.33;0.90;;;;;;;30.49;21.49;102403.06;5082984;28;20036;-74
2022/08/31 11:27:10;;;;;;;2.08;0.60;;;;;;;30.56;21.50;102404.25;5019602;28;20621;-74
2022/08/31 11:29:57;;;;;;;1.65;0.75;;;;;;;30.70;21.84;102398.56;5029590;28;20056;-75
2022/08/31 11:32:34;;;;;;;2.30;0.70;;;;;;;30.19;21.72;102401.97;5025909;28;20045;-75
2022/08/31 11:35:06;;;;;;;1.02;0.28;;;;;;;30.29;21.48;102407.22;5030626;28;20251;-74
2022/08/31 11:37:51;;;;;;;3.85;0.90;;;;;;;30.62;20.33;102399.38;5030469;28;20045;-75
2022/08/31 11:40:40;;;;;;;1.45;0.68;;;;;;;29.77;21.64;102383.97;5030735;28;20478;-75
2022/08/31 11:43:35;;;;;;;2.78;0.47;;;;;;;30.28;20.87;102392.56;5030331;28;20068;-77
2022/08/31 11:46:24;;;;;;;1.58;0.60;;;;;;;30.78;19.73;102395.00;4990805;28;20050;-76
2022/08/31 11:48:53;;;;;;;4.70;0.60;;;;;;;30.08;20.43;102397.81;4990472;28;20046;-75
2022/08/31 11:51:45;;;;;;;3.85;0.60;;;;;;;30.27;20.81;102395.59;4990494;28;20055;-73